createdAt,value
2019-04-07T00:00:35.946Z,13.33
2019-04-07T00:03:08.047Z,15.03
2019-04-07T00:05:39.852Z,15.13
2019-04-07T00:08:11.614Z,15.70
2019-04-07T00:10:43.521Z,14.33
2019-04-07T00:13:16.092Z,15.43
2019-04-07T00:15:47.923Z,15.20
2019-04-07T00:18:20.323Z,16.27
2019-04-07T00:20:52.136Z,13.97
2019-04-07T00:23:23.869Z,14.93
2019-04-07T00:25:55.593Z,15.37
2019-04-07T00:28:27.531Z,16.17
2019-04-07T00:30:59.564Z,14.83
2019-04-07T00:33:32.166Z,14.63
2019-04-07T00:36:04.254Z,17.70
2019-04-07T00:38:36.020Z,15.33
2019-04-07T00:41:07.924Z,14.83
2019-04-07T00:43:39.784Z,15.53
2019-04-07T00:46:11.585Z,15.30
2019-04-07T00:48:44.081Z,14.97
2019-04-07T00:51:16.722Z,16.90
2019-04-07T00:53:48.519Z,18.03
2019-04-07T00:56:20.526Z,17.00
2019-04-07T00:58:52.437Z,16.13
2019-04-07T01:01:24.557Z,17.43
2019-04-07T01:03:56.850Z,16.80
2019-04-07T01:06:28.688Z,17.23
2019-04-07T01:09:00.392Z,16.47
2019-04-07T01:11:32.137Z,17.53
2019-04-07T01:14:04.098Z,16.13
2019-04-07T01:16:36.252Z,17.13
2019-04-07T01:19:08.057Z,17.67
2019-04-07T01:21:40.385Z,17.30
2019-04-07T01:24:12.413Z,16.40
2019-04-07T01:26:44.702Z,17.60
2019-04-07T01:29:16.817Z,17.03
2019-04-07T01:31:48.601Z,16.07
2019-04-07T01:34:20.666Z,18.20
2019-04-07T01:36:52.436Z,15.87
2019-04-07T01:39:24.158Z,17.20
2019-04-07T01:42:04.944Z,17.70
2019-04-07T01:44:42.055Z,17.73
2019-04-07T01:47:28.084Z,16.70
2019-04-07T01:50:22.099Z,17.10
2019-04-07T01:53:02.360Z,17.17
2019-04-07T01:55:43.376Z,16.23
2019-04-07T01:58:33.969Z,17.13
2019-04-07T02:01:28.507Z,16.17
2019-04-07T02:04:20.438Z,18.13
2019-04-07T02:07:05.087Z,16.17
2019-04-07T02:09:55.703Z,17.07
2019-04-07T02:12:57.929Z,16.90
2019-04-07T02:16:01.360Z,16.67
2019-04-07T02:18:42.231Z,16.70
2019-04-07T02:21:35.083Z,17.77
2019-04-07T02:24:24.571Z,16.20
2019-04-07T02:27:18.663Z,15.80
2019-04-07T02:30:13.374Z,17.93
2019-04-07T02:33:03.740Z,17.10
2019-04-07T02:36:21.572Z,18.70
2019-04-07T02:39:00.085Z,18.80
2019-04-07T02:41:42.205Z,17.87
2019-04-07T02:44:22.118Z,17.13
2019-04-07T02:47:13.709Z,17.67
2019-04-07T02:49:54.076Z,16.73
2019-04-07T02:52:33.673Z,16.87
2019-04-07T02:55:15.727Z,17.43
2019-04-07T02:57:58.396Z,16.70
2019-04-07T03:00:39.407Z,16.47
2019-04-07T03:03:29.377Z,17.50
2019-04-07T03:06:34.656Z,16.70
2019-04-07T03:09:12.926Z,16.90
2019-04-07T03:12:00.337Z,15.53
2019-04-07T03:14:41.500Z,16.57
2019-04-07T03:17:27.443Z,18.00
2019-04-07T03:20:15.345Z,17.20
2019-04-07T03:23:00.188Z,17.37
2019-04-07T03:25:54.899Z,16.30
2019-04-07T03:28:44.740Z,16.80
2019-04-07T03:31:36.645Z,17.03
2019-04-07T03:34:36.381Z,16.53
2019-04-07T03:37:38.794Z,17.10
2019-04-07T03:40:35.592Z,17.23
2019-04-07T03:43:30.420Z,16.87
2019-04-07T03:46:20.333Z,16.80
2019-04-07T03:48:58.164Z,18.17
2019-04-07T03:51:48.089Z,16.87
2019-04-07T03:54:39.982Z,17.60
2019-04-07T03:57:37.224Z,17.03
2019-04-07T04:00:56.517Z,16.40
2019-04-07T04:03:38.594Z,17.27
2019-04-07T04:06:24.703Z,18.33
2019-04-07T04:09:11.274Z,17.83
2019-04-07T04:11:54.038Z,18.20
2019-04-07T04:14:29.891Z,18.83
2019-04-07T04:17:02.078Z,19.17
2019-04-07T04:19:34.716Z,18.00
2019-04-07T04:22:07.393Z,17.97
2019-04-07T04:24:39.951Z,18.57
2019-04-07T04:27:12.733Z,18.17
2019-04-07T04:29:44.890Z,18.00
2019-04-07T04:32:16.812Z,18.77
2019-04-07T04:34:48.515Z,18.83
2019-04-07T04:37:34.292Z,18.13
2019-04-07T04:39:54.218Z,17.80
2019-04-07T04:42:26.820Z,18.33
2019-04-07T04:44:58.949Z,17.67
2019-04-07T04:47:30.968Z,17.60
2019-04-07T04:50:05.999Z,18.23
2019-04-07T04:52:38.309Z,17.97
2019-04-07T04:55:10.140Z,18.63
2019-04-07T04:57:42.503Z,18.70
2019-04-07T05:00:14.455Z,19.53
2019-04-07T05:02:46.830Z,18.30
2019-04-07T05:05:18.705Z,17.10
2019-04-07T05:07:59.172Z,18.80
2019-04-07T05:10:24.857Z,18.10
2019-04-07T05:12:57.215Z,18.03
2019-04-07T05:15:29.638Z,17.60
2019-04-07T05:18:01.667Z,17.50
2019-04-07T05:20:34.507Z,18.13
2019-04-07T05:23:06.263Z,17.20
2019-04-07T05:25:37.980Z,18.50
2019-04-07T05:28:10.054Z,18.10
2019-04-07T05:30:42.493Z,17.73
2019-04-07T05:33:14.363Z,17.87
2019-04-07T05:35:46.074Z,19.13
2019-04-07T05:38:17.928Z,17.97
2019-04-07T05:40:50.018Z,16.77
2019-04-07T05:43:22.673Z,15.70
2019-04-07T05:45:55.432Z,17.03
2019-04-07T05:48:27.953Z,15.80
2019-04-07T05:51:00.861Z,16.07
2019-04-07T05:53:33.323Z,16.87
2019-04-07T05:56:05.998Z,15.93
2019-04-07T05:58:40.697Z,17.37
2019-04-07T06:01:11.731Z,17.40
2019-04-07T06:03:43.707Z,17.00
2019-04-07T06:06:15.833Z,17.80
2019-04-07T06:08:48.594Z,17.40
2019-04-07T06:11:21.627Z,18.60
2019-04-07T06:13:53.437Z,18.07
2019-04-07T06:16:25.246Z,17.23
2019-04-07T06:18:57.710Z,19.90
2019-04-07T06:21:29.563Z,18.13
2019-04-07T06:24:01.293Z,18.67
2019-04-07T06:26:33.100Z,18.73
2019-04-07T06:29:05.034Z,19.03
2019-04-07T06:31:36.749Z,19.07
2019-04-07T06:34:10.499Z,19.77
2019-04-07T06:36:42.193Z,18.23
2019-04-07T06:39:17.149Z,18.10
2019-04-07T06:41:48.872Z,18.07
2019-04-07T06:44:22.390Z,18.83
2019-04-07T06:47:20.274Z,18.20
2019-04-07T06:50:10.064Z,19.40
2019-04-07T06:52:51.970Z,19.53
2019-04-07T06:55:33.315Z,20.97
2019-04-07T06:58:12.083Z,20.00
2019-04-07T07:01:03.711Z,19.07
2019-04-07T07:04:13.992Z,20.20
2019-04-07T07:06:57.867Z,19.83
2019-04-07T07:09:54.472Z,21.20
2019-04-07T07:12:45.197Z,20.52
2019-04-07T07:15:35.346Z,20.57
2019-04-07T07:18:27.316Z,19.05
2019-04-07T07:21:24.659Z,20.48
2019-04-07T07:23:56.854Z,20.30
2019-04-07T07:26:32.825Z,20.23
2019-04-07T07:29:03.083Z,21.48
2019-04-07T07:31:35.576Z,19.82
2019-04-07T07:34:09.345Z,20.27
2019-04-07T07:36:41.757Z,20.08
2019-04-07T07:39:14.529Z,19.77
2019-04-07T07:41:48.389Z,20.75
2019-04-07T07:44:20.129Z,20.17
2019-04-07T07:46:52.584Z,19.85
2019-04-07T07:49:24.792Z,20.48
2019-04-07T07:51:56.975Z,21.82
2019-04-07T07:54:30.398Z,21.42
2019-04-07T07:57:02.473Z,21.45
2019-04-07T07:59:38.001Z,20.48
2019-04-07T08:02:08.578Z,21.15
2019-04-07T08:04:40.445Z,20.77
2019-04-07T08:07:15.506Z,20.48
2019-04-07T08:09:45.860Z,21.40
2019-04-07T08:12:17.727Z,20.25
2019-04-07T08:14:53.023Z,21.02
2019-04-07T08:17:23.859Z,18.37
2019-04-07T08:19:55.714Z,18.27
2019-04-07T08:22:33.830Z,19.32
2019-04-07T08:25:01.135Z,18.45
2019-04-07T08:27:33.159Z,19.75
2019-04-07T08:30:09.946Z,18.82
2019-04-07T08:32:38.978Z,17.32
2019-04-07T08:35:11.392Z,18.60
2019-04-07T08:37:45.770Z,17.17
2019-04-07T08:40:16.877Z,17.48
2019-04-07T08:42:50.194Z,15.15
2019-04-07T08:45:23.075Z,15.88
2019-04-07T08:47:55.444Z,16.85
2019-04-07T08:50:28.501Z,15.95
2019-04-07T08:53:00.500Z,15.88
2019-04-07T08:55:32.369Z,15.50
2019-04-07T08:58:05.599Z,16.50
2019-04-07T09:00:41.683Z,15.32
2019-04-07T09:03:15.851Z,15.08
2019-04-07T09:05:47.793Z,15.50
2019-04-07T09:08:20.409Z,15.05
2019-04-07T09:11:03.236Z,15.23
2019-04-07T09:13:35.074Z,14.45
2019-04-07T09:16:16.592Z,15.00
2019-04-07T09:19:01.752Z,14.10
2019-04-07T09:21:51.725Z,14.40
2019-04-07T09:24:39.232Z,14.23
2019-04-07T09:27:22.501Z,12.37
2019-04-07T09:29:59.995Z,13.13
2019-04-07T09:32:43.910Z,13.80
2019-04-07T09:35:36.107Z,13.93
2019-04-07T09:38:27.394Z,13.22
2019-04-07T09:41:29.498Z,13.58
2019-04-07T09:44:11.415Z,13.25
2019-04-07T09:47:21.480Z,13.90
2019-04-07T09:50:31.274Z,13.18
2019-04-07T09:53:18.893Z,13.25
2019-04-07T09:56:00.836Z,13.55
2019-04-07T09:58:44.290Z,14.45
2019-04-07T10:01:27.743Z,13.93
2019-04-07T10:04:07.103Z,13.35
2019-04-07T10:06:56.619Z,14.87
2019-04-07T10:10:07.657Z,13.62
2019-04-07T10:12:40.429Z,14.00
2019-04-07T10:15:29.637Z,13.83
2019-04-07T10:18:08.676Z,12.35
2019-04-07T10:20:57.862Z,14.18
2019-04-07T10:23:35.344Z,14.47
2019-04-07T10:26:26.985Z,14.43
2019-04-07T10:29:04.593Z,13.53
2019-04-07T10:31:54.435Z,13.45
2019-04-07T10:34:38.692Z,13.80
2019-04-07T10:37:20.934Z,13.15
2019-04-07T10:40:27.574Z,13.25
2019-04-07T10:43:17.359Z,12.28
2019-04-07T10:46:21.505Z,13.78
2019-04-07T10:49:04.308Z,13.28
2019-04-07T10:51:59.276Z,12.93
2019-04-07T10:54:39.262Z,12.85
2019-04-07T10:57:27.746Z,13.15
2019-04-07T11:00:31.381Z,13.10
2019-04-07T11:03:12.111Z,14.18
2019-04-07T11:06:03.921Z,13.00
2019-04-07T11:09:00.424Z,13.50
2019-04-07T11:11:49.135Z,12.55
2019-04-07T11:14:33.020Z,13.60
2019-04-07T11:17:14.054Z,12.68
2019-04-07T11:20:04.090Z,13.38
2019-04-07T11:23:01.961Z,13.00
2019-04-07T11:25:44.994Z,12.13
2019-04-07T11:28:28.954Z,12.70
2019-04-07T11:31:08.076Z,12.53
2019-04-07T11:33:45.903Z,12.58
2019-04-07T11:36:46.224Z,12.55
2019-04-07T11:39:25.052Z,12.63
2019-04-07T11:42:19.748Z,11.65
2019-04-07T11:45:00.840Z,11.65
2019-04-07T11:47:50.149Z,11.65
2019-04-07T11:50:32.609Z,12.58
2019-04-07T11:53:27.506Z,12.00
2019-04-07T11:56:28.510Z,11.38
2019-04-07T11:59:09.190Z,11.65
2019-04-07T12:02:08.852Z,13.80
2019-04-07T12:05:12.453Z,11.60
2019-04-07T12:08:07.262Z,11.57
2019-04-07T12:10:56.233Z,12.45
2019-04-07T12:13:28.669Z,11.08
2019-04-07T12:16:24.743Z,12.50
2019-04-07T12:19:04.609Z,11.65
2019-04-07T12:21:59.328Z,11.03
2019-04-07T12:24:46.557Z,11.57
2019-04-07T12:27:37.721Z,10.78
2019-04-07T12:30:23.700Z,11.35
2019-04-07T12:33:07.905Z,11.97
2019-04-07T12:35:51.683Z,10.05
2019-04-07T12:38:44.650Z,10.65
2019-04-07T12:41:22.481Z,11.18
2019-04-07T12:44:13.577Z,10.70
2019-04-07T12:47:00.025Z,12.37
2019-04-07T12:49:51.949Z,11.33
2019-04-07T12:52:35.500Z,11.28
2019-04-07T12:55:39.285Z,11.08
2019-04-07T12:58:26.659Z,11.28
2019-04-07T13:01:19.867Z,11.28
2019-04-07T13:04:17.876Z,11.22
2019-04-07T13:06:56.775Z,12.45
2019-04-07T13:09:53.788Z,10.82
2019-04-07T13:12:44.031Z,11.93
2019-04-07T13:15:45.561Z,11.08
2019-04-07T13:18:39.915Z,11.93
2019-04-07T13:21:45.998Z,11.18
2019-04-07T13:24:38.928Z,12.75
2019-04-07T13:27:23.664Z,11.15
2019-04-07T13:30:04.076Z,12.25
2019-04-07T13:33:01.649Z,11.28
2019-04-07T13:35:39.472Z,12.35
2019-04-07T13:38:18.950Z,11.93
2019-04-07T13:41:08.436Z,10.98
2019-04-07T13:43:57.775Z,11.08
2019-04-07T13:46:37.693Z,11.50
2019-04-07T13:49:27.848Z,11.40
2019-04-07T13:52:20.776Z,10.93
2019-04-07T13:55:05.156Z,11.53
2019-04-07T13:57:57.718Z,11.10
2019-04-07T14:00:39.012Z,11.38
2019-04-07T14:03:31.286Z,10.90
2019-04-07T14:06:32.826Z,9.20
2019-04-07T14:09:16.935Z,9.33
2019-04-07T14:12:04.045Z,10.48
2019-04-07T14:14:48.412Z,10.43
2019-04-07T14:17:51.909Z,10.20
2019-04-07T14:20:48.527Z,10.65
2019-04-07T14:23:37.012Z,11.40
2019-04-07T14:26:14.670Z,11.73
2019-04-07T14:29:06.483Z,11.22
2019-04-07T14:32:14.152Z,11.10
2019-04-07T14:35:14.061Z,10.93
2019-04-07T14:37:52.641Z,11.13
2019-04-07T14:40:37.702Z,10.47
2019-04-07T14:43:32.204Z,10.33
2019-04-07T14:46:16.206Z,10.10
2019-04-07T14:49:19.597Z,9.83
2019-04-07T14:52:08.896Z,9.87
2019-04-07T14:54:59.085Z,11.07
2019-04-07T14:57:56.620Z,10.37
2019-04-07T15:00:49.104Z,10.50
2019-04-07T15:03:21.462Z,10.40
2019-04-07T15:05:56.368Z,10.30
2019-04-07T15:08:49.803Z,11.47
2019-04-07T15:11:32.330Z,9.30
2019-04-07T15:14:04.427Z,10.80
2019-04-07T15:16:36.816Z,9.90
2019-04-07T15:19:09.555Z,10.10
2019-04-07T15:21:41.496Z,10.47
2019-04-07T15:24:13.346Z,10.03
2019-04-07T15:26:48.939Z,10.37
2019-04-07T15:29:18.797Z,9.70
2019-04-07T15:31:51.853Z,9.20
2019-04-07T15:34:24.220Z,9.43
2019-04-07T15:36:56.785Z,9.73
2019-04-07T15:39:30.066Z,10.17
2019-04-07T15:42:03.164Z,8.73
2019-04-07T15:44:37.214Z,8.83
2019-04-07T15:47:09.361Z,10.57
2019-04-07T15:49:41.930Z,10.80
2019-04-07T15:52:13.853Z,10.13
2019-04-07T15:54:45.688Z,9.60
2019-04-07T15:57:20.191Z,9.67
2019-04-07T15:59:51.016Z,10.57
2019-04-07T16:02:23.445Z,10.30
2019-04-07T16:04:59.257Z,9.97
2019-04-07T16:07:29.539Z,11.73
2019-04-07T16:10:01.942Z,9.30
2019-04-07T16:12:42.848Z,9.10
2019-04-07T16:15:08.105Z,9.33
2019-04-07T16:17:40.388Z,9.87
2019-04-07T16:20:20.624Z,9.93
2019-04-07T16:22:49.154Z,9.50
2019-04-07T16:25:22.740Z,10.37
2019-04-07T16:27:54.559Z,9.67
2019-04-07T16:30:27.684Z,9.43
2019-04-07T16:33:01.886Z,8.93
2019-04-07T16:35:33.048Z,9.23
2019-04-07T16:38:05.269Z,9.13
2019-04-07T16:40:40.528Z,9.93
2019-04-07T16:43:15.406Z,10.00
2019-04-07T16:45:46.299Z,10.03
2019-04-07T16:48:19.677Z,9.20
2019-04-07T16:50:53.329Z,9.63
2019-04-07T16:53:25.883Z,9.00
2019-04-07T16:55:57.766Z,9.27
2019-04-07T16:58:33.154Z,10.70
2019-04-07T17:01:03.536Z,9.53
2019-04-07T17:03:35.483Z,8.73
2019-04-07T17:06:07.401Z,9.73
2019-04-07T17:08:40.195Z,9.90
2019-04-07T17:11:12.852Z,9.37
2019-04-07T17:13:44.732Z,8.97
2019-04-07T17:16:22.138Z,9.17
2019-04-07T17:18:51.065Z,10.70
2019-04-07T17:21:23.142Z,10.23
2019-04-07T17:23:55.969Z,10.50
2019-04-07T17:26:28.522Z,10.43
2019-04-07T17:29:01.193Z,10.13
2019-04-07T17:31:33.595Z,9.53
2019-04-07T17:34:09.875Z,9.50
2019-04-07T17:36:40.602Z,10.77
2019-04-07T17:39:40.495Z,10.03
2019-04-07T17:42:14.371Z,10.23
2019-04-07T17:45:02.066Z,10.33
2019-04-07T17:47:54.849Z,9.93
2019-04-07T17:50:47.664Z,10.63
2019-04-07T17:53:29.736Z,10.43
2019-04-07T17:56:19.988Z,8.73
2019-04-07T17:59:15.335Z,12.70
2019-04-07T18:02:16.127Z,10.43
2019-04-07T18:04:57.267Z,10.33
2019-04-07T18:07:42.846Z,10.83
2019-04-07T18:10:46.588Z,10.17
2019-04-07T18:13:47.179Z,9.90
2019-04-07T18:16:30.719Z,9.50
2019-04-07T18:19:22.548Z,10.73
2019-04-07T18:22:24.533Z,10.60
2019-04-07T18:25:12.691Z,11.27
2019-04-07T18:27:50.483Z,11.80
2019-04-07T18:30:37.371Z,13.50
2019-04-07T18:33:34.639Z,14.87
2019-04-07T18:36:34.954Z,14.20
2019-04-07T18:39:19.839Z,14.00
2019-04-07T18:42:20.827Z,14.43
2019-04-07T18:45:18.992Z,14.50
2019-04-07T18:48:02.281Z,13.73
2019-04-07T18:50:54.651Z,13.40
2019-04-07T18:53:45.367Z,11.50
2019-04-07T18:56:30.855Z,12.80
2019-04-07T18:59:21.535Z,13.30
2019-04-07T19:02:14.317Z,12.83
2019-04-07T19:05:01.895Z,12.00
2019-04-07T19:07:54.328Z,10.53
2019-04-07T19:11:08.182Z,11.63
2019-04-07T19:14:20.425Z,11.80
2019-04-07T19:16:50.813Z,12.13
2019-04-07T19:19:44.137Z,11.13
2019-04-07T19:22:40.429Z,11.63
2019-04-07T19:25:31.267Z,10.50
2019-04-07T19:28:34.199Z,10.90
2019-04-07T19:31:23.688Z,11.50
2019-04-07T19:34:31.816Z,11.43
2019-04-07T19:37:22.889Z,10.70
2019-04-07T19:40:08.236Z,11.30
2019-04-07T19:42:48.127Z,10.90
2019-04-07T19:45:32.926Z,10.93
2019-04-07T19:48:29.495Z,10.73
2019-04-07T19:51:30.614Z,10.50
2019-04-07T19:54:25.671Z,11.33
2019-04-07T19:57:07.043Z,11.60
2019-04-07T19:59:57.133Z,10.77
2019-04-07T20:02:40.428Z,12.20
2019-04-07T20:05:32.328Z,11.80
2019-04-07T20:08:24.870Z,11.03
2019-04-07T20:11:30.403Z,11.17
2019-04-07T20:14:28.457Z,12.77
2019-04-07T20:17:32.457Z,11.30
2019-04-07T20:20:17.449Z,12.07
2019-04-07T20:23:11.678Z,13.43
2019-04-07T20:26:03.702Z,11.77
2019-04-07T20:28:47.205Z,11.47
2019-04-07T20:31:37.271Z,13.47
2019-04-07T20:34:29.640Z,12.73
2019-04-07T20:37:26.664Z,13.67
2019-04-07T20:40:22.574Z,14.10
2019-04-07T20:43:12.700Z,13.23
2019-04-07T20:45:53.842Z,12.23
2019-04-07T20:48:45.419Z,13.30
2019-04-07T20:51:50.645Z,11.93
2019-04-07T20:54:26.568Z,10.57
2019-04-07T20:57:09.315Z,10.83
2019-04-07T20:59:56.297Z,11.23
2019-04-07T21:02:46.806Z,11.53
2019-04-07T21:05:29.687Z,11.33
2019-04-07T21:08:23.076Z,10.57
2019-04-07T21:11:07.500Z,11.70
2019-04-07T21:14:05.003Z,11.13
2019-04-07T21:17:15.382Z,10.47
2019-04-07T21:20:24.946Z,11.67
2019-04-07T21:23:19.880Z,10.03
2019-04-07T21:26:05.599Z,11.73
2019-04-07T21:28:42.793Z,11.50
2019-04-07T21:31:37.668Z,10.60
2019-04-07T21:34:26.078Z,12.07
2019-04-07T21:37:12.527Z,11.87
2019-04-07T21:39:49.623Z,11.77
2019-04-07T21:42:50.336Z,11.23
2019-04-07T21:45:47.134Z,12.00
2019-04-07T21:48:31.976Z,11.90
2019-04-07T21:51:15.366Z,11.73
2019-04-07T21:54:02.322Z,12.57
2019-04-07T21:57:00.476Z,13.03
2019-04-07T21:59:48.621Z,12.80
2019-04-07T22:02:30.089Z,12.90
2019-04-07T22:05:07.624Z,12.27
2019-04-07T22:07:44.877Z,12.63
2019-04-07T22:10:20.366Z,11.93
2019-04-07T22:12:51.836Z,12.00
2019-04-07T22:15:24.627Z,11.87
2019-04-07T22:17:56.476Z,12.40
2019-04-07T22:20:29.221Z,11.50
2019-04-07T22:23:03.860Z,11.57
2019-04-07T22:25:48.916Z,11.83
2019-04-07T22:28:20.944Z,11.37
2019-04-07T22:30:53.889Z,12.27
2019-04-07T22:33:28.628Z,12.63
2019-04-07T22:35:59.689Z,12.77
2019-04-07T22:38:31.740Z,12.20
2019-04-07T22:41:06.974Z,12.80
2019-04-07T22:43:37.309Z,12.40
2019-04-07T22:46:18.443Z,12.57
2019-04-07T22:48:42.732Z,13.65
2019-04-07T22:51:14.938Z,11.83
2019-04-07T22:53:47.603Z,12.63
2019-04-07T22:56:20.258Z,12.83
2019-04-07T22:58:52.160Z,11.03
2019-04-07T23:01:25.043Z,11.93
2019-04-07T23:03:58.009Z,11.93
2019-04-07T23:06:29.957Z,12.70
2019-04-07T23:09:01.671Z,11.43
2019-04-07T23:11:33.407Z,11.77
2019-04-07T23:14:05.213Z,12.60
2019-04-07T23:16:37.996Z,12.60
2019-04-07T23:19:10.922Z,12.40
2019-04-07T23:21:42.914Z,13.27
2019-04-07T23:24:15.000Z,13.33
2019-04-07T23:26:46.931Z,13.07
2019-04-07T23:29:19.770Z,13.47
2019-04-07T23:31:51.651Z,12.93
2019-04-07T23:34:23.879Z,12.27
2019-04-07T23:36:55.728Z,12.80
2019-04-07T23:39:27.425Z,12.47
2019-04-07T23:41:59.253Z,13.30
2019-04-07T23:44:31.767Z,13.93
2019-04-07T23:47:04.736Z,13.30
2019-04-07T23:49:36.620Z,13.37
2019-04-07T23:52:08.940Z,12.73
2019-04-07T23:54:40.763Z,12.90
2019-04-07T23:57:13.397Z,14.27
2019-04-07T23:59:45.308Z,13.33
